sensor_id;sensor_type;location;lat;lon;timestamp;pressure;altitude;pressure_sealevel;temperature
69552;BMP280;63774;45.292;11.784;2023-06-10T00:00:12;101463.75;;;24.71
69552;BMP280;63774;45.292;11.784;2023-06-10T00:02:41;101469.71;;;24.72
69552;BMP280;63774;45.292;11.784;2023-06-10T00:05:07;101471.76;;;24.71
69552;BMP280;63774;45.292;11.784;2023-06-10T00:07:34;101475.38;;;24.68
69552;BMP280;63774;45.292;11.784;2023-06-10T00:10:05;101475.70;;;24.71
69552;BMP280;63774;45.292;11.784;2023-06-10T00:12:31;101479.93;;;24.70
69552;BMP280;63774;45.292;11.784;2023-06-10T00:15:03;101481.80;;;24.71
69552;BMP280;63774;45.292;11.784;2023-06-10T00:17:30;101483.80;;;24.69
69552;BMP280;63774;45.292;11.784;2023-06-10T00:19:56;101486.05;;;24.70
69552;BMP280;63774;45.292;11.784;2023-06-10T00:22:22;101488.19;;;24.70
69552;BMP280;63774;45.292;11.784;2023-06-10T00:24:49;101488.84;;;24.70
69552;BMP280;63774;45.292;11.784;2023-06-10T00:27:16;101492.39;;;24.70
69552;BMP280;63774;45.292;11.784;2023-06-10T00:29:42;101490.92;;;24.70
69552;BMP280;63774;45.292;11.784;2023-06-10T00:32:07;101492.28;;;24.70
69552;BMP280;63774;45.292;11.784;2023-06-10T00:34:33;101495.13;;;24.68
69552;BMP280;63774;45.292;11.784;2023-06-10T00:36:58;101493.17;;;24.67
69552;BMP280;63774;45.292;11.784;2023-06-10T00:39:24;101494.89;;;24.67
69552;BMP280;63774;45.292;11.784;2023-06-10T00:41:49;101495.66;;;24.67
69552;BMP280;63774;45.292;11.784;2023-06-10T00:44:16;101492.64;;;24.67
69552;BMP280;63774;45.292;11.784;2023-06-10T00:46:42;101493.65;;;24.66
69552;BMP280;63774;45.292;11.784;2023-06-10T00:49:08;101494.79;;;24.65
69552;BMP280;63774;45.292;11.784;2023-06-10T00:51:34;101496.34;;;24.64
69552;BMP280;63774;45.292;11.784;2023-06-10T00:54:00;101491.98;;;24.66
69552;BMP280;63774;45.292;11.784;2023-06-10T00:56:26;101491.67;;;24.66
69552;BMP280;63774;45.292;11.784;2023-06-10T00:58:52;101487.70;;;24.62
69552;BMP280;63774;45.292;11.784;2023-06-10T01:01:17;101484.71;;;24.61
69552;BMP280;63774;45.292;11.784;2023-06-10T01:03:45;101486.81;;;24.58
69552;BMP280;63774;45.292;11.784;2023-06-10T01:07:14;101482.35;;;24.59
69552;BMP280;63774;45.292;11.784;2023-06-10T01:12:19;101475.51;;;24.56
69552;BMP280;63774;45.292;11.784;2023-06-10T01:14:47;101472.55;;;24.57
69552;BMP280;63774;45.292;11.784;2023-06-10T01:17:14;101471.59;;;24.46
69552;BMP280;63774;45.292;11.784;2023-06-10T01:19:41;101470.84;;;24.39
69552;BMP280;63774;45.292;11.784;2023-06-10T01:22:09;101471.45;;;24.40
69552;BMP280;63774;45.292;11.784;2023-06-10T01:24:36;101477.55;;;24.39
69552;BMP280;63774;45.292;11.784;2023-06-10T01:27:05;101478.30;;;24.42
69552;BMP280;63774;45.292;11.784;2023-06-10T01:29:42;101480.73;;;24.42
69552;BMP280;63774;45.292;11.784;2023-06-10T01:32:24;101485.45;;;24.38
69552;BMP280;63774;45.292;11.784;2023-06-10T01:34:51;101488.38;;;24.34
69552;BMP280;63774;45.292;11.784;2023-06-10T01:37:19;101486.39;;;24.27
69552;BMP280;63774;45.292;11.784;2023-06-10T01:39:47;101483.42;;;24.32
69552;BMP280;63774;45.292;11.784;2023-06-10T01:42:14;101476.10;;;24.32
69552;BMP280;63774;45.292;11.784;2023-06-10T01:44:40;101472.65;;;24.32
69552;BMP280;63774;45.292;11.784;2023-06-10T01:47:07;101472.62;;;24.28
69552;BMP280;63774;45.292;11.784;2023-06-10T01:49:33;101472.02;;;24.27
69552;BMP280;63774;45.292;11.784;2023-06-10T01:51:58;101476.40;;;24.28
69552;BMP280;63774;45.292;11.784;2023-06-10T01:54:23;101481.27;;;24.22
69552;BMP280;63774;45.292;11.784;2023-06-10T01:56:49;101485.23;;;24.24
69552;BMP280;63774;45.292;11.784;2023-06-10T01:59:14;101492.15;;;24.24
69552;BMP280;63774;45.292;11.784;2023-06-10T02:01:41;101499.80;;;24.26
69552;BMP280;63774;45.292;11.784;2023-06-10T02:04:06;101500.16;;;24.27
69552;BMP280;63774;45.292;11.784;2023-06-10T02:06:32;101495.82;;;24.27
69552;BMP280;63774;45.292;11.784;2023-06-10T02:08:57;101485.88;;;24.30
69552;BMP280;63774;45.292;11.784;2023-06-10T02:11:23;101482.13;;;24.31
69552;BMP280;63774;45.292;11.784;2023-06-10T02:13:48;101481.73;;;24.33
69552;BMP280;63774;45.292;11.784;2023-06-10T02:16:14;101479.77;;;24.33
69552;BMP280;63774;45.292;11.784;2023-06-10T02:18:42;101479.39;;;24.33
69552;BMP280;63774;45.292;11.784;2023-06-10T02:21:11;101480.27;;;24.33
69552;BMP280;63774;45.292;11.784;2023-06-10T02:23:37;101482.52;;;24.32
69552;BMP280;63774;45.292;11.784;2023-06-10T02:26:02;101481.84;;;24.34
69552;BMP280;63774;45.292;11.784;2023-06-10T02:28:28;101484.91;;;24.37
69552;BMP280;63774;45.292;11.784;2023-06-10T02:30:53;101484.88;;;24.35
69552;BMP280;63774;45.292;11.784;2023-06-10T02:33:19;101481.33;;;24.34
69552;BMP280;63774;45.292;11.784;2023-06-10T02:35:45;101481.65;;;24.34
69552;BMP280;63774;45.292;11.784;2023-06-10T02:38:10;101482.97;;;24.35
69552;BMP280;63774;45.292;11.784;2023-06-10T02:40:36;101482.98;;;24.35
69552;BMP280;63774;45.292;11.784;2023-06-10T02:43:01;101482.46;;;24.37
69552;BMP280;63774;45.292;11.784;2023-06-10T02:45:27;101480.70;;;24.38
69552;BMP280;63774;45.292;11.784;2023-06-10T02:47:52;101480.31;;;24.39
69552;BMP280;63774;45.292;11.784;2023-06-10T02:50:18;101475.51;;;24.40
69552;BMP280;63774;45.292;11.784;2023-06-10T02:52:43;101474.55;;;24.39
69552;BMP280;63774;45.292;11.784;2023-06-10T02:55:09;101471.60;;;24.40
69552;BMP280;63774;45.292;11.784;2023-06-10T02:57:35;101470.88;;;24.41
69552;BMP280;63774;45.292;11.784;2023-06-10T03:00:01;101472.25;;;24.43
69552;BMP280;63774;45.292;11.784;2023-06-10T03:02:27;101468.76;;;24.42
69552;BMP280;63774;45.292;11.784;2023-06-10T03:04:55;101471.27;;;24.44
69552;BMP280;63774;45.292;11.784;2023-06-10T03:07:21;101473.27;;;24.43
69552;BMP280;63774;45.292;11.784;2023-06-10T03:09:46;101475.69;;;24.45
69552;BMP280;63774;45.292;11.784;2023-06-10T03:12:12;101475.41;;;24.42
69552;BMP280;63774;45.292;11.784;2023-06-10T03:14:37;101477.14;;;24.41
69552;BMP280;63774;45.292;11.784;2023-06-10T03:17:04;101473.55;;;24.40
69552;BMP280;63774;45.292;11.784;2023-06-10T03:19:30;101475.83;;;24.41
69552;BMP280;63774;45.292;11.784;2023-06-10T03:22:13;101475.38;;;24.41
69552;BMP280;63774;45.292;11.784;2023-06-10T03:24:39;101472.87;;;24.41
69552;BMP280;63774;45.292;11.784;2023-06-10T03:27:09;101469.30;;;24.40
69552;BMP280;63774;45.292;11.784;2023-06-10T03:29:37;101467.61;;;24.41
69552;BMP280;63774;45.292;11.784;2023-06-10T03:32:02;101466.02;;;24.38
69552;BMP280;63774;45.292;11.784;2023-06-10T03:34:28;101464.84;;;24.38
69552;BMP280;63774;45.292;11.784;2023-06-10T03:36:55;101466.86;;;24.39
69552;BMP280;63774;45.292;11.784;2023-06-10T03:39:21;101465.14;;;24.39
69552;BMP280;63774;45.292;11.784;2023-06-10T03:41:48;101464.89;;;24.38
69552;BMP280;63774;45.292;11.784;2023-06-10T03:44:13;101466.96;;;24.40
69552;BMP280;63774;45.292;11.784;2023-06-10T03:46:40;101463.63;;;24.41
69552;BMP280;63774;45.292;11.784;2023-06-10T03:49:05;101463.23;;;24.40
69552;BMP280;63774;45.292;11.784;2023-06-10T03:51:31;101462.75;;;24.41
69552;BMP280;63774;45.292;11.784;2023-06-10T03:53:56;101464.13;;;24.42
69552;BMP280;63774;45.292;11.784;2023-06-10T03:56:22;101466.14;;;24.42
69552;BMP280;63774;45.292;11.784;2023-06-10T03:58:47;101466.88;;;24.44
69552;BMP280;63774;45.292;11.784;2023-06-10T04:01:12;101467.42;;;24.43
69552;BMP280;63774;45.292;11.784;2023-06-10T04:03:43;101471.85;;;24.45
69552;BMP280;63774;45.292;11.784;2023-06-10T04:06:09;101478.48;;;24.46
69552;BMP280;63774;45.292;11.784;2023-06-10T04:08:34;101478.90;;;24.45
69552;BMP280;63774;45.292;11.784;2023-06-10T04:11:01;101479.02;;;24.46
69552;BMP280;63774;45.292;11.784;2023-06-10T04:13:27;101476.52;;;24.46
69552;BMP280;63774;45.292;11.784;2023-06-10T04:15:52;101475.60;;;24.46
69552;BMP280;63774;45.292;11.784;2023-06-10T04:18:19;101473.23;;;24.48
69552;BMP280;63774;45.292;11.784;2023-06-10T04:20:47;101471.41;;;24.49
69552;BMP280;63774;45.292;11.784;2023-06-10T04:23:12;101470.41;;;24.49
69552;BMP280;63774;45.292;11.784;2023-06-10T04:25:38;101471.15;;;24.50
69552;BMP280;63774;45.292;11.784;2023-06-10T04:28:03;101468.06;;;24.49
69552;BMP280;63774;45.292;11.784;2023-06-10T04:30:29;101466.83;;;24.50
69552;BMP280;63774;45.292;11.784;2023-06-10T04:32:56;101463.31;;;24.51
69552;BMP280;63774;45.292;11.784;2023-06-10T04:35:22;101463.46;;;24.50
69552;BMP280;63774;45.292;11.784;2023-06-10T04:37:47;101459.95;;;24.50
69552;BMP280;63774;45.292;11.784;2023-06-10T04:40:13;101461.20;;;24.52
69552;BMP280;63774;45.292;11.784;2023-06-10T04:42:39;101464.63;;;24.50
69552;BMP280;63774;45.292;11.784;2023-06-10T04:45:05;101467.65;;;24.49
69552;BMP280;63774;45.292;11.784;2023-06-10T04:47:31;101471.30;;;24.47
69552;BMP280;63774;45.292;11.784;2023-06-10T04:50:00;101472.61;;;24.45
69552;BMP280;63774;45.292;11.784;2023-06-10T04:52:25;101469.67;;;24.44
69552;BMP280;63774;45.292;11.784;2023-06-10T04:54:51;101469.23;;;24.45
69552;BMP280;63774;45.292;11.784;2023-06-10T04:57:16;101465.98;;;24.45
69552;BMP280;63774;45.292;11.784;2023-06-10T04:59:42;101464.53;;;24.45
69552;BMP280;63774;45.292;11.784;2023-06-10T05:02:07;101463.63;;;24.47
69552;BMP280;63774;45.292;11.784;2023-06-10T05:04:33;101459.99;;;24.48
69552;BMP280;63774;45.292;11.784;2023-06-10T05:06:58;101458.42;;;24.50
69552;BMP280;63774;45.292;11.784;2023-06-10T05:09:23;101458.00;;;24.51
69552;BMP280;63774;45.292;11.784;2023-06-10T05:11:49;101457.96;;;24.52
69552;BMP280;63774;45.292;11.784;2023-06-10T05:14:15;101457.20;;;24.54
69552;BMP280;63774;45.292;11.784;2023-06-10T05:16:44;101456.69;;;24.56
69552;BMP280;63774;45.292;11.784;2023-06-10T05:19:09;101455.53;;;24.56
69552;BMP280;63774;45.292;11.784;2023-06-10T05:21:35;101452.56;;;24.57
69552;BMP280;63774;45.292;11.784;2023-06-10T05:24:00;101451.30;;;24.57
69552;BMP280;63774;45.292;11.784;2023-06-10T05:26:26;101450.42;;;24.58
69552;BMP280;63774;45.292;11.784;2023-06-10T05:28:51;101451.27;;;24.58
69552;BMP280;63774;45.292;11.784;2023-06-10T05:31:17;101451.46;;;24.59
69552;BMP280;63774;45.292;11.784;2023-06-10T05:33:43;101457.05;;;24.60
69552;BMP280;63774;45.292;11.784;2023-06-10T05:36:08;101461.75;;;24.60
69552;BMP280;63774;45.292;11.784;2023-06-10T05:38:34;101459.34;;;24.61
69552;BMP280;63774;45.292;11.784;2023-06-10T05:40:59;101461.39;;;24.60
69552;BMP280;63774;45.292;11.784;2023-06-10T05:43:25;101466.52;;;24.62
69552;BMP280;63774;45.292;11.784;2023-06-10T05:45:50;101468.95;;;24.61
69552;BMP280;63774;45.292;11.784;2023-06-10T05:48:16;101470.11;;;24.63
69552;BMP280;63774;45.292;11.784;2023-06-10T05:50:41;101468.95;;;24.62
69552;BMP280;63774;45.292;11.784;2023-06-10T05:53:09;101464.98;;;24.63
69552;BMP280;63774;45.292;11.784;2023-06-10T05:55:44;101463.48;;;24.63
69552;BMP280;63774;45.292;11.784;2023-06-10T05:58:10;101458.05;;;24.63
69552;BMP280;63774;45.292;11.784;2023-06-10T06:00:38;101452.86;;;24.63
69552;BMP280;63774;45.292;11.784;2023-06-10T06:03:09;101454.98;;;24.65
69552;BMP280;63774;45.292;11.784;2023-06-10T06:05:36;101453.23;;;24.66
69552;BMP280;63774;45.292;11.784;2023-06-10T06:08:03;101450.02;;;24.67
69552;BMP280;63774;45.292;11.784;2023-06-10T06:10:29;101451.63;;;24.69
69552;BMP280;63774;45.292;11.784;2023-06-10T06:12:55;101456.27;;;24.70
69552;BMP280;63774;45.292;11.784;2023-06-10T06:15:20;101458.92;;;24.69
69552;BMP280;63774;45.292;11.784;2023-06-10T06:17:46;101461.36;;;24.69
69552;BMP280;63774;45.292;11.784;2023-06-10T06:20:12;101462.08;;;24.70
69552;BMP280;63774;45.292;11.784;2023-06-10T06:22:37;101466.03;;;24.73
69552;BMP280;63774;45.292;11.784;2023-06-10T06:25:03;101465.33;;;24.73
69552;BMP280;63774;45.292;11.784;2023-06-10T06:27:28;101464.49;;;24.75
69552;BMP280;63774;45.292;11.784;2023-06-10T06:29:54;101463.13;;;24.77
69552;BMP280;63774;45.292;11.784;2023-06-10T06:32:20;101462.23;;;24.78
69552;BMP280;63774;45.292;11.784;2023-06-10T06:34:47;101468.59;;;24.78
69552;BMP280;63774;45.292;11.784;2023-06-10T06:37:14;101466.71;;;24.78
69552;BMP280;63774;45.292;11.784;2023-06-10T06:39:40;101461.75;;;24.80
69552;BMP280;63774;45.292;11.784;2023-06-10T06:42:06;101459.30;;;24.80
69552;BMP280;63774;45.292;11.784;2023-06-10T06:44:31;101460.85;;;24.81
69552;BMP280;63774;45.292;11.784;2023-06-10T06:46:57;101456.09;;;24.81
69552;BMP280;63774;45.292;11.784;2023-06-10T06:49:22;101455.91;;;24.81
69552;BMP280;63774;45.292;11.784;2023-06-10T06:51:48;101452.06;;;24.83
69552;BMP280;63774;45.292;11.784;2023-06-10T06:54:13;101446.66;;;24.83
69552;BMP280;63774;45.292;11.784;2023-06-10T06:56:39;101446.25;;;24.84
69552;BMP280;63774;45.292;11.784;2023-06-10T06:59:04;101449.20;;;24.87
69552;BMP280;63774;45.292;11.784;2023-06-10T07:01:30;101448.89;;;24.87
69552;BMP280;63774;45.292;11.784;2023-06-10T07:03:55;101448.90;;;24.86
69552;BMP280;63774;45.292;11.784;2023-06-10T07:06:21;101446.63;;;24.87
69552;BMP280;63774;45.292;11.784;2023-06-10T07:08:49;101448.98;;;24.87
69552;BMP280;63774;45.292;11.784;2023-06-10T07:11:14;101449.64;;;24.87
69552;BMP280;63774;45.292;11.784;2023-06-10T07:13:41;101449.36;;;24.89
69552;BMP280;63774;45.292;11.784;2023-06-10T07:16:06;101454.98;;;24.89
69552;BMP280;63774;45.292;11.784;2023-06-10T07:18:32;101456.92;;;24.90
69552;BMP280;63774;45.292;11.784;2023-06-10T07:20:57;101455.64;;;24.90
69552;BMP280;63774;45.292;11.784;2023-06-10T07:23:23;101458.45;;;24.91
69552;BMP280;63774;45.292;11.784;2023-06-10T07:25:48;101455.38;;;24.91
69552;BMP280;63774;45.292;11.784;2023-06-10T07:28:14;101461.39;;;24.92
69552;BMP280;63774;45.292;11.784;2023-06-10T07:30:39;101465.02;;;24.92
69552;BMP280;63774;45.292;11.784;2023-06-10T07:33:05;101461.13;;;24.94
69552;BMP280;63774;45.292;11.784;2023-06-10T07:35:33;101459.68;;;24.93
69552;BMP280;63774;45.292;11.784;2023-06-10T07:37:58;101458.41;;;24.94
69552;BMP280;63774;45.292;11.784;2023-06-10T07:40:24;101454.60;;;24.95
69552;BMP280;63774;45.292;11.784;2023-06-10T07:42:50;101451.21;;;24.97
69552;BMP280;63774;45.292;11.784;2023-06-10T07:45:15;101452.52;;;24.96
69552;BMP280;63774;45.292;11.784;2023-06-10T07:47:43;101455.75;;;24.97
69552;BMP280;63774;45.292;11.784;2023-06-10T07:50:09;101456.45;;;24.97
69552;BMP280;63774;45.292;11.784;2023-06-10T07:52:34;101455.35;;;24.97
69552;BMP280;63774;45.292;11.784;2023-06-10T07:55:00;101452.73;;;24.98
69552;BMP280;63774;45.292;11.784;2023-06-10T07:57:25;101450.65;;;24.98
69552;BMP280;63774;45.292;11.784;2023-06-10T07:59:51;101450.90;;;24.99
69552;BMP280;63774;45.292;11.784;2023-06-10T08:02:17;101447.52;;;24.99
69552;BMP280;63774;45.292;11.784;2023-06-10T08:04:42;101443.35;;;24.99
69552;BMP280;63774;45.292;11.784;2023-06-10T08:07:08;101447.08;;;25.00
69552;BMP280;63774;45.292;11.784;2023-06-10T08:09:33;101441.73;;;25.01
69552;BMP280;63774;45.292;11.784;2023-06-10T08:12:00;101443.70;;;25.02
69552;BMP280;63774;45.292;11.784;2023-06-10T08:14:25;101443.44;;;25.02
69552;BMP280;63774;45.292;11.784;2023-06-10T08:16:50;101446.85;;;25.04
69552;BMP280;63774;45.292;11.784;2023-06-10T08:19:16;101448.16;;;25.06
69552;BMP280;63774;45.292;11.784;2023-06-10T08:21:42;101446.92;;;25.07
69552;BMP280;63774;45.292;11.784;2023-06-10T08:24:07;101448.73;;;25.06
69552;BMP280;63774;45.292;11.784;2023-06-10T08:26:33;101450.98;;;25.06
69552;BMP280;63774;45.292;11.784;2023-06-10T08:28:58;101453.15;;;25.10
69552;BMP280;63774;45.292;11.784;2023-06-10T08:31:23;101452.98;;;25.11
69552;BMP280;63774;45.292;11.784;2023-06-10T08:33:49;101455.35;;;25.10
69552;BMP280;63774;45.292;11.784;2023-06-10T08:36:15;101456.11;;;25.13
69552;BMP280;63774;45.292;11.784;2023-06-10T08:38:41;101452.73;;;25.15
69552;BMP280;63774;45.292;11.784;2023-06-10T08:41:07;101455.98;;;25.16
69552;BMP280;63774;45.292;11.784;2023-06-10T08:43:48;101457.59;;;25.18
69552;BMP280;63774;45.292;11.784;2023-06-10T08:46:16;101458.50;;;25.20
69552;BMP280;63774;45.292;11.784;2023-06-10T08:48:43;101455.71;;;25.23
69552;BMP280;63774;45.292;11.784;2023-06-10T08:51:10;101455.02;;;25.22
69552;BMP280;63774;45.292;11.784;2023-06-10T08:53:38;101454.57;;;25.22
69552;BMP280;63774;45.292;11.784;2023-06-10T08:56:05;101451.98;;;25.21
69552;BMP280;63774;45.292;11.784;2023-06-10T08:58:32;101454.91;;;25.20
69552;BMP280;63774;45.292;11.784;2023-06-10T09:01:00;101455.09;;;25.19
69552;BMP280;63774;45.292;11.784;2023-06-10T09:03:27;101459.04;;;25.19
69552;BMP280;63774;45.292;11.784;2023-06-10T09:05:53;101458.60;;;25.23
69552;BMP280;63774;45.292;11.784;2023-06-10T09:08:22;101458.63;;;25.23
69552;BMP280;63774;45.292;11.784;2023-06-10T09:10:47;101460.23;;;25.24
69552;BMP280;63774;45.292;11.784;2023-06-10T09:13:13;101462.21;;;25.23
69552;BMP280;63774;45.292;11.784;2023-06-10T09:15:41;101465.49;;;25.23
69552;BMP280;63774;45.292;11.784;2023-06-10T09:18:07;101464.55;;;25.24
69552;BMP280;63774;45.292;11.784;2023-06-10T09:20:32;101467.79;;;25.23
69552;BMP280;63774;45.292;11.784;2023-06-10T09:22:59;101464.82;;;25.23
69552;BMP280;63774;45.292;11.784;2023-06-10T09:25:35;101466.78;;;25.22
69552;BMP280;63774;45.292;11.784;2023-06-10T09:28:02;101468.58;;;25.24
69552;BMP280;63774;45.292;11.784;2023-06-10T09:30:29;101468.70;;;25.24
69552;BMP280;63774;45.292;11.784;2023-06-10T09:32:56;101467.95;;;25.25
69552;BMP280;63774;45.292;11.784;2023-06-10T09:35:25;101465.20;;;25.26
69552;BMP280;63774;45.292;11.784;2023-06-10T09:37:58;101465.06;;;25.29
69552;BMP280;63774;45.292;11.784;2023-06-10T09:40:24;101463.52;;;25.30
69552;BMP280;63774;45.292;11.784;2023-06-10T09:42:58;101465.09;;;25.31
69552;BMP280;63774;45.292;11.784;2023-06-10T09:45:29;101468.80;;;25.34
69552;BMP280;63774;45.292;11.784;2023-06-10T09:47:54;101466.08;;;25.35
69552;BMP280;63774;45.292;11.784;2023-06-10T09:50:21;101464.70;;;25.35
69552;BMP280;63774;45.292;11.784;2023-06-10T09:52:46;101469.02;;;25.37
69552;BMP280;63774;45.292;11.784;2023-06-10T09:55:17;101470.23;;;25.40
69552;BMP280;63774;45.292;11.784;2023-06-10T09:57:49;101476.63;;;25.44
69552;BMP280;63774;45.292;11.784;2023-06-10T10:00:15;101476.01;;;25.46
69552;BMP280;63774;45.292;11.784;2023-06-10T10:02:51;101479.16;;;25.47
69552;BMP280;63774;45.292;11.784;2023-06-10T10:05:19;101474.61;;;25.46
69552;BMP280;63774;45.292;11.784;2023-06-10T10:07:45;101472.05;;;25.44
69552;BMP280;63774;45.292;11.784;2023-06-10T10:10:13;101471.77;;;25.43
69552;BMP280;63774;45.292;11.784;2023-06-10T10:12:40;101473.36;;;25.44
69552;BMP280;63774;45.292;11.784;2023-06-10T10:15:10;101471.02;;;25.42
69552;BMP280;63774;45.292;11.784;2023-06-10T10:18:09;101472.51;;;25.42
69552;BMP280;63774;45.292;11.784;2023-06-10T10:20:38;101474.20;;;25.41
69552;BMP280;63774;45.292;11.784;2023-06-10T10:23:08;101472.55;;;25.42
69552;BMP280;63774;45.292;11.784;2023-06-10T10:25:38;101472.40;;;25.41
69552;BMP280;63774;45.292;11.784;2023-06-10T10:28:11;101471.39;;;25.39
69552;BMP280;63774;45.292;11.784;2023-06-10T10:30:42;101474.15;;;25.41
69552;BMP280;63774;45.292;11.784;2023-06-10T10:33:15;101473.63;;;25.39
69552;BMP280;63774;45.292;11.784;2023-06-10T10:35:43;101473.33;;;25.40
69552;BMP280;63774;45.292;11.784;2023-06-10T10:38:09;101475.74;;;25.42
69552;BMP280;63774;45.292;11.784;2023-06-10T10:40:36;101473.91;;;25.43
69552;BMP280;63774;45.292;11.784;2023-06-10T10:43:02;101471.57;;;25.42
69552;BMP280;63774;45.292;11.784;2023-06-10T10:45:28;101469.23;;;25.45
69552;BMP280;63774;45.292;11.784;2023-06-10T10:47:54;101466.05;;;25.47
69552;BMP280;63774;45.292;11.784;2023-06-10T10:50:22;101468.04;;;25.51
69552;BMP280;63774;45.292;11.784;2023-06-10T10:52:53;101467.90;;;25.53
69552;BMP280;63774;45.292;11.784;2023-06-10T10:55:20;101467.13;;;25.53
69552;BMP280;63774;45.292;11.784;2023-06-10T10:58:03;101469.55;;;25.55
69552;BMP280;63774;45.292;11.784;2023-06-10T11:03:03;101471.61;;;25.56
69552;BMP280;63774;45.292;11.784;2023-06-10T11:05:45;101473.02;;;25.57
69552;BMP280;63774;45.292;11.784;2023-06-10T11:10:59;101471.52;;;25.58
69552;BMP280;63774;45.292;11.784;2023-06-10T11:13:27;101472.81;;;25.59
69552;BMP280;63774;45.292;11.784;2023-06-10T11:15:57;101469.73;;;25.57
69552;BMP280;63774;45.292;11.784;2023-06-10T11:18:29;101468.77;;;25.57
69552;BMP280;63774;45.292;11.784;2023-06-10T11:21:00;101465.69;;;25.58
69552;BMP280;63774;45.292;11.784;2023-06-10T11:28:34;101454.54;;;25.57
69552;BMP280;63774;45.292;11.784;2023-06-10T11:31:00;101456.20;;;25.57
69552;BMP280;63774;45.292;11.784;2023-06-10T11:33:25;101452.77;;;25.57
69552;BMP280;63774;45.292;11.784;2023-06-10T11:35:51;101453.83;;;25.56
69552;BMP280;63774;45.292;11.784;2023-06-10T11:38:17;101450.11;;;25.56
69552;BMP280;63774;45.292;11.784;2023-06-10T11:40:51;101450.35;;;25.53
69552;BMP280;63774;45.292;11.784;2023-06-10T11:43:19;101446.19;;;25.53
69552;BMP280;63774;45.292;11.784;2023-06-10T11:45:45;101445.20;;;25.52
69552;BMP280;63774;45.292;11.784;2023-06-10T11:48:12;101439.50;;;25.52
69552;BMP280;63774;45.292;11.784;2023-06-10T11:50:38;101437.08;;;25.50
69552;BMP280;63774;45.292;11.784;2023-06-10T11:53:04;101435.23;;;25.49
69552;BMP280;63774;45.292;11.784;2023-06-10T11:55:46;101431.05;;;25.48
69552;BMP280;63774;45.292;11.784;2023-06-10T11:58:21;101422.58;;;25.50
69552;BMP280;63774;45.292;11.784;2023-06-10T12:00:56;101418.38;;;25.51
69552;BMP280;63774;45.292;11.784;2023-06-10T12:03:24;101410.60;;;25.53
69552;BMP280;63774;45.292;11.784;2023-06-10T12:08:29;101402.33;;;25.54
69552;BMP280;63774;45.292;11.784;2023-06-10T12:10:55;101401.67;;;25.54
69552;BMP280;63774;45.292;11.784;2023-06-10T12:13:21;101400.15;;;25.54
69552;BMP280;63774;45.292;11.784;2023-06-10T12:15:48;101395.47;;;25.56
69552;BMP280;63774;45.292;11.784;2023-06-10T12:18:18;101394.80;;;25.55
69552;BMP280;63774;45.292;11.784;2023-06-10T12:20:44;101394.57;;;25.57
69552;BMP280;63774;45.292;11.784;2023-06-10T12:23:10;101393.20;;;25.58
69552;BMP280;63774;45.292;11.784;2023-06-10T12:25:36;101393.52;;;25.58
69552;BMP280;63774;45.292;11.784;2023-06-10T12:28:05;101391.61;;;25.59
69552;BMP280;63774;45.292;11.784;2023-06-10T12:30:32;101389.61;;;25.61
69552;BMP280;63774;45.292;11.784;2023-06-10T12:32:57;101385.10;;;25.59
69552;BMP280;63774;45.292;11.784;2023-06-10T12:35:24;101378.66;;;25.59
69552;BMP280;63774;45.292;11.784;2023-06-10T12:38:04;101374.52;;;25.58
69552;BMP280;63774;45.292;11.784;2023-06-10T12:42:58;101372.86;;;25.58
69552;BMP280;63774;45.292;11.784;2023-06-10T12:45:34;101372.98;;;25.58
69552;BMP280;63774;45.292;11.784;2023-06-10T12:48:10;101372.14;;;25.57
69552;BMP280;63774;45.292;11.784;2023-06-10T12:50:37;101370.80;;;25.58
69552;BMP280;63774;45.292;11.784;2023-06-10T12:53:04;101370.05;;;25.58
69552;BMP280;63774;45.292;11.784;2023-06-10T12:55:31;101371.23;;;25.57
69552;BMP280;63774;45.292;11.784;2023-06-10T12:57:57;101367.62;;;25.58
69552;BMP280;63774;45.292;11.784;2023-06-10T13:00:23;101364.30;;;25.58
69552;BMP280;63774;45.292;11.784;2023-06-10T13:02:52;101360.94;;;25.58
69552;BMP280;63774;45.292;11.784;2023-06-10T13:05:20;101356.55;;;25.58
69552;BMP280;63774;45.292;11.784;2023-06-10T13:07:46;101358.04;;;25.59
69552;BMP280;63774;45.292;11.784;2023-06-10T13:10:15;101357.64;;;25.60
69552;BMP280;63774;45.292;11.784;2023-06-10T13:12:42;101353.77;;;25.61
69552;BMP280;63774;45.292;11.784;2023-06-10T13:15:08;101352.48;;;25.60
69552;BMP280;63774;45.292;11.784;2023-06-10T13:17:34;101355.39;;;25.60
69552;BMP280;63774;45.292;11.784;2023-06-10T13:20:03;101355.44;;;25.58
69552;BMP280;63774;45.292;11.784;2023-06-10T13:22:31;101355.48;;;25.58
69552;BMP280;63774;45.292;11.784;2023-06-10T13:25:07;101357.55;;;25.58
69552;BMP280;63774;45.292;11.784;2023-06-10T13:27:33;101356.25;;;25.57
69552;BMP280;63774;45.292;11.784;2023-06-10T13:29:59;101354.08;;;25.57
69552;BMP280;63774;45.292;11.784;2023-06-10T13:32:25;101357.59;;;25.58
69552;BMP280;63774;45.292;11.784;2023-06-10T13:34:50;101358.37;;;25.56
69552;BMP280;63774;45.292;11.784;2023-06-10T13:37:16;101360.05;;;25.57
69552;BMP280;63774;45.292;11.784;2023-06-10T13:39:45;101362.45;;;25.57
69552;BMP280;63774;45.292;11.784;2023-06-10T13:42:14;101363.98;;;25.57
69552;BMP280;63774;45.292;11.784;2023-06-10T13:44:40;101365.77;;;25.57
69552;BMP280;63774;45.292;11.784;2023-06-10T13:47:05;101366.92;;;25.58
69552;BMP280;63774;45.292;11.784;2023-06-10T13:49:32;101366.50;;;25.59
69552;BMP280;63774;45.292;11.784;2023-06-10T13:51:57;101363.36;;;25.61
69552;BMP280;63774;45.292;11.784;2023-06-10T13:54:23;101367.25;;;25.61
69552;BMP280;63774;45.292;11.784;2023-06-10T13:56:48;101362.61;;;25.61
69552;BMP280;63774;45.292;11.784;2023-06-10T13:59:14;101361.94;;;25.62
69552;BMP280;63774;45.292;11.784;2023-06-10T14:01:39;101362.09;;;25.64